sensor_id;sensor_type;location;lat;lon;timestamp;P1;durP1;ratioP1;P2;durP2;ratioP2
4043;SDS011;2036;51.578;7.108;2022-07-23T00:00:00;799.20;;;738.83;;
4043;SDS011;2036;51.578;7.108;2022-07-23T00:02:26;839.47;;;778.00;;
4043;SDS011;2036;51.578;7.108;2022-07-23T00:04:52;846.60;;;781.30;;
4043;SDS011;2036;51.578;7.108;2022-07-23T00:07:18;799.13;;;738.83;;
4043;SDS011;2036;51.578;7.108;2022-07-23T00:09:44;806.00;;;743.37;;
4043;SDS011;2036;51.578;7.108;2022-07-23T00:12:10;806.67;;;747.37;;
4043;SDS011;2036;51.578;7.108;2022-07-23T00:14:35;826.47;;;767.07;;
4043;SDS011;2036;51.578;7.108;2022-07-23T00:17:01;817.00;;;757.93;;
4043;SDS011;2036;51.578;7.108;2022-07-23T00:19:27;789.73;;;731.57;;
4043;SDS011;2036;51.578;7.108;2022-07-23T00:21:54;831.23;;;768.03;;
4043;SDS011;2036;51.578;7.108;2022-07-23T00:24:20;813.53;;;755.23;;
4043;SDS011;2036;51.578;7.108;2022-07-23T00:26:45;851.43;;;788.53;;
4043;SDS011;2036;51.578;7.108;2022-07-23T00:29:11;798.37;;;739.57;;
4043;SDS011;2036;51.578;7.108;2022-07-23T00:31:37;729.93;;;676.07;;
4043;SDS011;2036;51.578;7.108;2022-07-23T00:34:03;703.77;;;652.67;;
4043;SDS011;2036;51.578;7.108;2022-07-23T00:36:29;816.73;;;754.93;;
4043;SDS011;2036;51.578;7.108;2022-07-23T00:38:56;803.03;;;743.73;;
4043;SDS011;2036;51.578;7.108;2022-07-23T00:41:24;794.40;;;735.03;;
4043;SDS011;2036;51.578;7.108;2022-07-23T00:43:51;806.97;;;746.67;;
4043;SDS011;2036;51.578;7.108;2022-07-23T00:46:20;777.27;;;718.17;;
4043;SDS011;2036;51.578;7.108;2022-07-23T00:48:47;826.40;;;763.93;;
4043;SDS011;2036;51.578;7.108;2022-07-23T00:51:17;780.90;;;723.07;;
4043;SDS011;2036;51.578;7.108;2022-07-23T00:53:43;809.83;;;754.00;;
4043;SDS011;2036;51.578;7.108;2022-07-23T00:56:10;720.83;;;669.03;;
4043;SDS011;2036;51.578;7.108;2022-07-23T00:58:36;634.03;;;586.87;;
4043;SDS011;2036;51.578;7.108;2022-07-23T01:01:06;571.47;;;528.97;;
4043;SDS011;2036;51.578;7.108;2022-07-23T01:03:33;686.70;;;636.83;;
4043;SDS011;2036;51.578;7.108;2022-07-23T01:05:58;587.90;;;545.07;;
4043;SDS011;2036;51.578;7.108;2022-07-23T01:08:24;584.67;;;541.80;;
4043;SDS011;2036;51.578;7.108;2022-07-23T01:10:50;646.13;;;599.10;;
4043;SDS011;2036;51.578;7.108;2022-07-23T01:13:17;643.20;;;595.07;;
4043;SDS011;2036;51.578;7.108;2022-07-23T01:15:42;653.23;;;604.90;;
4043;SDS011;2036;51.578;7.108;2022-07-23T01:18:08;733.20;;;680.37;;
4043;SDS011;2036;51.578;7.108;2022-07-23T01:20:35;746.77;;;693.10;;
4043;SDS011;2036;51.578;7.108;2022-07-23T01:23:01;682.57;;;632.93;;
4043;SDS011;2036;51.578;7.108;2022-07-23T01:25:27;620.63;;;574.53;;
4043;SDS011;2036;51.578;7.108;2022-07-23T01:27:53;643.93;;;596.43;;
4043;SDS011;2036;51.578;7.108;2022-07-23T01:30:19;664.80;;;616.53;;
4043;SDS011;2036;51.578;7.108;2022-07-23T01:32:45;712.40;;;660.47;;
4043;SDS011;2036;51.578;7.108;2022-07-23T01:35:11;693.80;;;642.17;;
4043;SDS011;2036;51.578;7.108;2022-07-23T01:37:37;725.57;;;672.90;;
4043;SDS011;2036;51.578;7.108;2022-07-23T01:40:04;705.63;;;653.87;;
4043;SDS011;2036;51.578;7.108;2022-07-23T01:42:31;711.03;;;660.13;;
4043;SDS011;2036;51.578;7.108;2022-07-23T01:44:57;687.83;;;639.20;;
4043;SDS011;2036;51.578;7.108;2022-07-23T01:47:23;664.63;;;616.53;;
4043;SDS011;2036;51.578;7.108;2022-07-23T01:49:48;650.40;;;601.83;;
4043;SDS011;2036;51.578;7.108;2022-07-23T01:52:14;637.80;;;590.27;;
4043;SDS011;2036;51.578;7.108;2022-07-23T01:54:41;622.23;;;576.20;;
4043;SDS011;2036;51.578;7.108;2022-07-23T01:57:08;588.63;;;544.37;;
4043;SDS011;2036;51.578;7.108;2022-07-23T01:59:34;675.73;;;626.23;;
4043;SDS011;2036;51.578;7.108;2022-07-23T02:02:01;651.37;;;603.40;;
4043;SDS011;2036;51.578;7.108;2022-07-23T02:04:28;598.10;;;552.47;;
4043;SDS011;2036;51.578;7.108;2022-07-23T02:06:54;678.03;;;628.83;;
4043;SDS011;2036;51.578;7.108;2022-07-23T02:09:20;647.00;;;599.13;;
4043;SDS011;2036;51.578;7.108;2022-07-23T02:11:46;651.27;;;603.60;;
4043;SDS011;2036;51.578;7.108;2022-07-23T02:14:12;663.43;;;615.17;;
4043;SDS011;2036;51.578;7.108;2022-07-23T02:16:38;639.33;;;590.97;;
4043;SDS011;2036;51.578;7.108;2022-07-23T02:19:04;686.53;;;636.80;;
4043;SDS011;2036;51.578;7.108;2022-07-23T02:21:30;668.03;;;618.87;;
4043;SDS011;2036;51.578;7.108;2022-07-23T02:23:55;671.20;;;622.20;;
4043;SDS011;2036;51.578;7.108;2022-07-23T02:26:21;628.13;;;581.43;;
4043;SDS011;2036;51.578;7.108;2022-07-23T02:28:47;699.20;;;647.30;;
4043;SDS011;2036;51.578;7.108;2022-07-23T02:31:13;677.30;;;627.63;;
4043;SDS011;2036;51.578;7.108;2022-07-23T02:33:39;647.83;;;600.13;;
4043;SDS011;2036;51.578;7.108;2022-07-23T02:36:05;669.37;;;619.17;;
4043;SDS011;2036;51.578;7.108;2022-07-23T02:38:31;667.23;;;617.53;;
4043;SDS011;2036;51.578;7.108;2022-07-23T02:40:57;701.43;;;650.83;;
4043;SDS011;2036;51.578;7.108;2022-07-23T02:43:22;674.87;;;624.53;;
4043;SDS011;2036;51.578;7.108;2022-07-23T02:45:48;719.27;;;666.77;;
4043;SDS011;2036;51.578;7.108;2022-07-23T02:48:14;679.60;;;628.73;;
4043;SDS011;2036;51.578;7.108;2022-07-23T02:50:40;655.50;;;607.70;;
4043;SDS011;2036;51.578;7.108;2022-07-23T02:53:06;647.37;;;598.80;;
4043;SDS011;2036;51.578;7.108;2022-07-23T02:55:33;608.33;;;562.03;;
4043;SDS011;2036;51.578;7.108;2022-07-23T02:57:59;639.33;;;592.77;;
4043;SDS011;2036;51.578;7.108;2022-07-23T03:00:24;635.47;;;588.40;;
4043;SDS011;2036;51.578;7.108;2022-07-23T03:02:50;671.83;;;621.63;;
4043;SDS011;2036;51.578;7.108;2022-07-23T03:05:16;653.07;;;604.70;;
4043;SDS011;2036;51.578;7.108;2022-07-23T03:07:42;634.67;;;587.70;;
4043;SDS011;2036;51.578;7.108;2022-07-23T03:10:09;591.40;;;546.50;;
4043;SDS011;2036;51.578;7.108;2022-07-23T03:12:35;634.80;;;587.97;;
4043;SDS011;2036;51.578;7.108;2022-07-23T03:15:01;627.93;;;581.33;;
4043;SDS011;2036;51.578;7.108;2022-07-23T03:17:27;656.40;;;608.20;;
4043;SDS011;2036;51.578;7.108;2022-07-23T03:19:53;616.33;;;570.07;;
4043;SDS011;2036;51.578;7.108;2022-07-23T03:22:19;636.40;;;588.97;;
4043;SDS011;2036;51.578;7.108;2022-07-23T03:24:44;594.00;;;549.33;;
4043;SDS011;2036;51.578;7.108;2022-07-23T03:27:20;592.23;;;546.93;;
4043;SDS011;2036;51.578;7.108;2022-07-23T03:29:48;641.40;;;594.23;;
4043;SDS011;2036;51.578;7.108;2022-07-23T03:32:15;601.80;;;556.20;;
4043;SDS011;2036;51.578;7.108;2022-07-23T03:34:41;639.17;;;591.90;;
4043;SDS011;2036;51.578;7.108;2022-07-23T03:37:08;589.73;;;545.43;;
4043;SDS011;2036;51.578;7.108;2022-07-23T03:39:34;588.03;;;543.30;;
4043;SDS011;2036;51.578;7.108;2022-07-23T03:42:00;587.27;;;543.03;;
4043;SDS011;2036;51.578;7.108;2022-07-23T03:44:26;598.53;;;553.50;;
4043;SDS011;2036;51.578;7.108;2022-07-23T03:46:52;655.53;;;606.97;;
4043;SDS011;2036;51.578;7.108;2022-07-23T03:49:18;614.50;;;568.13;;
4043;SDS011;2036;51.578;7.108;2022-07-23T03:51:44;627.03;;;580.03;;
4043;SDS011;2036;51.578;7.108;2022-07-23T03:54:10;596.50;;;551.03;;
4043;SDS011;2036;51.578;7.108;2022-07-23T03:56:36;592.63;;;548.17;;
4043;SDS011;2036;51.578;7.108;2022-07-23T03:59:02;609.27;;;563.43;;
4043;SDS011;2036;51.578;7.108;2022-07-23T04:01:28;639.10;;;591.83;;
4043;SDS011;2036;51.578;7.108;2022-07-23T04:03:54;648.70;;;600.13;;
4043;SDS011;2036;51.578;7.108;2022-07-23T04:06:20;627.80;;;581.57;;
4043;SDS011;2036;51.578;7.108;2022-07-23T04:08:46;599.73;;;554.77;;
4043;SDS011;2036;51.578;7.108;2022-07-23T04:11:12;653.73;;;604.93;;
4043;SDS011;2036;51.578;7.108;2022-07-23T04:13:37;662.17;;;613.33;;
4043;SDS011;2036;51.578;7.108;2022-07-23T04:16:03;645.53;;;597.03;;
4043;SDS011;2036;51.578;7.108;2022-07-23T04:18:30;633.03;;;585.00;;
4043;SDS011;2036;51.578;7.108;2022-07-23T04:20:56;660.30;;;611.07;;
4043;SDS011;2036;51.578;7.108;2022-07-23T04:23:22;660.30;;;610.17;;
4043;SDS011;2036;51.578;7.108;2022-07-23T04:25:48;692.53;;;642.07;;
4043;SDS011;2036;51.578;7.108;2022-07-23T04:28:14;675.77;;;625.40;;
4043;SDS011;2036;51.578;7.108;2022-07-23T04:30:40;696.40;;;644.33;;
4043;SDS011;2036;51.578;7.108;2022-07-23T04:33:06;730.23;;;676.73;;
4043;SDS011;2036;51.578;7.108;2022-07-23T04:35:32;698.83;;;646.87;;
4043;SDS011;2036;51.578;7.108;2022-07-23T04:37:59;726.13;;;672.57;;
4043;SDS011;2036;51.578;7.108;2022-07-23T04:40:25;728.03;;;674.23;;
4043;SDS011;2036;51.578;7.108;2022-07-23T04:42:52;764.87;;;709.73;;
4043;SDS011;2036;51.578;7.108;2022-07-23T04:45:18;749.27;;;694.03;;
4043;SDS011;2036;51.578;7.108;2022-07-23T04:47:44;709.47;;;656.60;;
4043;SDS011;2036;51.578;7.108;2022-07-23T04:50:09;735.93;;;682.53;;
4043;SDS011;2036;51.578;7.108;2022-07-23T04:52:36;706.40;;;655.00;;
4043;SDS011;2036;51.578;7.108;2022-07-23T04:55:02;706.17;;;655.23;;
4043;SDS011;2036;51.578;7.108;2022-07-23T04:57:28;744.63;;;692.03;;
4043;SDS011;2036;51.578;7.108;2022-07-23T04:59:54;685.03;;;634.17;;
4043;SDS011;2036;51.578;7.108;2022-07-23T05:02:20;740.00;;;686.13;;
4043;SDS011;2036;51.578;7.108;2022-07-23T05:04:45;789.53;;;731.30;;
4043;SDS011;2036;51.578;7.108;2022-07-23T05:07:11;803.57;;;744.27;;
4043;SDS011;2036;51.578;7.108;2022-07-23T05:09:37;841.80;;;779.07;;
4043;SDS011;2036;51.578;7.108;2022-07-23T05:12:03;827.90;;;765.27;;
4043;SDS011;2036;51.578;7.108;2022-07-23T05:14:29;767.73;;;711.53;;
4043;SDS011;2036;51.578;7.108;2022-07-23T05:16:55;809.43;;;750.87;;
4043;SDS011;2036;51.578;7.108;2022-07-23T05:19:21;828.57;;;767.40;;
4043;SDS011;2036;51.578;7.108;2022-07-23T05:21:47;835.87;;;776.30;;
4043;SDS011;2036;51.578;7.108;2022-07-23T05:24:13;872.93;;;809.73;;
4043;SDS011;2036;51.578;7.108;2022-07-23T05:26:38;843.07;;;781.63;;
4043;SDS011;2036;51.578;7.108;2022-07-23T05:29:04;819.67;;;759.73;;
4043;SDS011;2036;51.578;7.108;2022-07-23T05:31:30;837.97;;;776.43;;
4043;SDS011;2036;51.578;7.108;2022-07-23T05:33:56;848.33;;;786.80;;
4043;SDS011;2036;51.578;7.108;2022-07-23T05:36:22;816.87;;;755.63;;
4043;SDS011;2036;51.578;7.108;2022-07-23T05:38:48;812.27;;;753.10;;
4043;SDS011;2036;51.578;7.108;2022-07-23T05:41:13;810.57;;;751.53;;
4043;SDS011;2036;51.578;7.108;2022-07-23T05:43:39;822.23;;;762.83;;
4043;SDS011;2036;51.578;7.108;2022-07-23T05:46:06;831.07;;;770.63;;
4043;SDS011;2036;51.578;7.108;2022-07-23T05:48:32;855.40;;;792.73;;
4043;SDS011;2036;51.578;7.108;2022-07-23T05:50:58;811.37;;;752.27;;
4043;SDS011;2036;51.578;7.108;2022-07-23T05:53:23;830.10;;;770.40;;
4043;SDS011;2036;51.578;7.108;2022-07-23T05:55:49;793.47;;;736.07;;
4043;SDS011;2036;51.578;7.108;2022-07-23T05:58:15;689.80;;;639.00;;
4043;SDS011;2036;51.578;7.108;2022-07-23T06:00:41;730.37;;;676.40;;
4043;SDS011;2036;51.578;7.108;2022-07-23T06:03:07;720.63;;;667.07;;
4043;SDS011;2036;51.578;7.108;2022-07-23T06:05:33;717.67;;;664.40;;
4043;SDS011;2036;51.578;7.108;2022-07-23T06:07:59;730.47;;;676.67;;
4043;SDS011;2036;51.578;7.108;2022-07-23T06:10:25;709.97;;;657.23;;
4043;SDS011;2036;51.578;7.108;2022-07-23T06:12:50;665.53;;;615.77;;
4043;SDS011;2036;51.578;7.108;2022-07-23T06:15:16;679.57;;;628.73;;
4043;SDS011;2036;51.578;7.108;2022-07-23T06:17:42;700.97;;;649.07;;
4043;SDS011;2036;51.578;7.108;2022-07-23T06:20:09;693.13;;;641.53;;
4043;SDS011;2036;51.578;7.108;2022-07-23T06:22:36;663.53;;;613.13;;
4043;SDS011;2036;51.578;7.108;2022-07-23T06:25:03;705.30;;;653.47;;
4043;SDS011;2036;51.578;7.108;2022-07-23T06:27:29;645.37;;;595.93;;
4043;SDS011;2036;51.578;7.108;2022-07-23T06:29:55;736.53;;;682.80;;
4043;SDS011;2036;51.578;7.108;2022-07-23T06:32:21;699.83;;;647.47;;
4043;SDS011;2036;51.578;7.108;2022-07-23T06:34:47;689.33;;;637.83;;
4043;SDS011;2036;51.578;7.108;2022-07-23T06:37:13;689.97;;;638.57;;
4043;SDS011;2036;51.578;7.108;2022-07-23T06:39:38;722.07;;;668.77;;
4043;SDS011;2036;51.578;7.108;2022-07-23T06:42:04;711.53;;;659.33;;
4043;SDS011;2036;51.578;7.108;2022-07-23T06:44:30;729.17;;;676.13;;
4043;SDS011;2036;51.578;7.108;2022-07-23T06:46:56;708.10;;;655.40;;
4043;SDS011;2036;51.578;7.108;2022-07-23T06:49:22;700.17;;;648.53;;
4043;SDS011;2036;51.578;7.108;2022-07-23T06:51:48;724.13;;;670.47;;
4043;SDS011;2036;51.578;7.108;2022-07-23T06:54:14;680.67;;;629.73;;
4043;SDS011;2036;51.578;7.108;2022-07-23T06:56:39;605.13;;;558.53;;
4043;SDS011;2036;51.578;7.108;2022-07-23T06:59:06;710.20;;;657.60;;
4043;SDS011;2036;51.578;7.108;2022-07-23T07:01:32;762.60;;;707.53;;
4043;SDS011;2036;51.578;7.108;2022-07-23T07:03:58;748.77;;;694.87;;
4043;SDS011;2036;51.578;7.108;2022-07-23T07:06:24;761.53;;;706.20;;
4043;SDS011;2036;51.578;7.108;2022-07-23T07:08:49;744.87;;;690.90;;
4043;SDS011;2036;51.578;7.108;2022-07-23T07:11:15;717.83;;;665.43;;
4043;SDS011;2036;51.578;7.108;2022-07-23T07:13:41;694.17;;;642.67;;
4043;SDS011;2036;51.578;7.108;2022-07-23T07:16:07;713.13;;;660.83;;
4043;SDS011;2036;51.578;7.108;2022-07-23T07:18:33;714.10;;;661.57;;
4043;SDS011;2036;51.578;7.108;2022-07-23T07:20:59;731.93;;;679.23;;
4043;SDS011;2036;51.578;7.108;2022-07-23T07:23:25;736.77;;;683.03;;
4043;SDS011;2036;51.578;7.108;2022-07-23T07:25:51;688.03;;;636.93;;
4043;SDS011;2036;51.578;7.108;2022-07-23T07:28:16;693.60;;;642.87;;
4043;SDS011;2036;51.578;7.108;2022-07-23T07:30:42;700.70;;;649.20;;
4043;SDS011;2036;51.578;7.108;2022-07-23T07:33:08;660.03;;;611.20;;
4043;SDS011;2036;51.578;7.108;2022-07-23T07:35:35;669.63;;;620.13;;
4043;SDS011;2036;51.578;7.108;2022-07-23T07:38:01;611.20;;;564.93;;
4043;SDS011;2036;51.578;7.108;2022-07-23T07:40:27;627.60;;;580.60;;
4043;SDS011;2036;51.578;7.108;2022-07-23T07:42:53;535.93;;;494.43;;
4043;SDS011;2036;51.578;7.108;2022-07-23T07:45:22;407.47;;;373.80;;
4043;SDS011;2036;51.578;7.108;2022-07-23T07:47:49;481.53;;;443.27;;
4043;SDS011;2036;51.578;7.108;2022-07-23T07:50:17;374.83;;;343.47;;
4043;SDS011;2036;51.578;7.108;2022-07-23T07:52:44;340.37;;;311.90;;
4043;SDS011;2036;51.578;7.108;2022-07-23T07:55:10;223.60;;;200.60;;
4043;SDS011;2036;51.578;7.108;2022-07-23T07:57:37;332.87;;;305.03;;
4043;SDS011;2036;51.578;7.108;2022-07-23T08:00:04;372.93;;;343.23;;
4043;SDS011;2036;51.578;7.108;2022-07-23T08:02:39;336.40;;;308.90;;
4043;SDS011;2036;51.578;7.108;2022-07-23T08:05:10;397.87;;;366.33;;
4043;SDS011;2036;51.578;7.108;2022-07-23T08:07:37;384.63;;;354.23;;
4043;SDS011;2036;51.578;7.108;2022-07-23T08:10:05;326.73;;;299.80;;
4043;SDS011;2036;51.578;7.108;2022-07-23T08:12:51;407.90;;;375.47;;
4043;SDS011;2036;51.578;7.108;2022-07-23T08:15:20;413.50;;;381.70;;
4043;SDS011;2036;51.578;7.108;2022-07-23T08:17:47;434.17;;;401.67;;
4043;SDS011;2036;51.578;7.108;2022-07-23T08:20:14;409.83;;;377.95;;
4043;SDS011;2036;51.578;7.108;2022-07-23T08:22:50;474.77;;;439.07;;
4043;SDS011;2036;51.578;7.108;2022-07-23T08:25:28;597.40;;;554.80;;
4043;SDS011;2036;51.578;7.108;2022-07-23T08:28:02;588.10;;;544.77;;
4043;SDS011;2036;51.578;7.108;2022-07-23T08:30:30;545.70;;;505.60;;
4043;SDS011;2036;51.578;7.108;2022-07-23T08:35:48;508.50;;;470.60;;
4043;SDS011;2036;51.578;7.108;2022-07-23T08:38:16;249.97;;;226.73;;
4043;SDS011;2036;51.578;7.108;2022-07-23T08:40:50;427.43;;;393.77;;
4043;SDS011;2036;51.578;7.108;2022-07-23T08:43:22;617.03;;;570.73;;
4043;SDS011;2036;51.578;7.108;2022-07-23T08:45:55;277.43;;;251.40;;
4043;SDS011;2036;51.578;7.108;2022-07-23T08:48:27;429.27;;;392.83;;
4043;SDS011;2036;51.578;7.108;2022-07-23T08:50:59;281.87;;;255.20;;
4043;SDS011;2036;51.578;7.108;2022-07-23T08:53:28;218.83;;;196.47;;
4043;SDS011;2036;51.578;7.108;2022-07-23T08:55:56;282.03;;;256.53;;
4043;SDS011;2036;51.578;7.108;2022-07-23T08:58:24;346.20;;;317.30;;
4043;SDS011;2036;51.578;7.108;2022-07-23T09:00:50;305.63;;;280.13;;
4043;SDS011;2036;51.578;7.108;2022-07-23T09:03:18;297.40;;;272.23;;
4043;SDS011;2036;51.578;7.108;2022-07-23T09:05:46;522.03;;;480.83;;
4043;SDS011;2036;51.578;7.108;2022-07-23T09:08:14;297.00;;;272.17;;
4043;SDS011;2036;51.578;7.108;2022-07-23T09:10:58;675.33;;;625.10;;
4043;SDS011;2036;51.578;7.108;2022-07-23T09:13:42;690.47;;;640.23;;
4043;SDS011;2036;51.578;7.108;2022-07-23T09:16:19;280.23;;;256.40;;
4043;SDS011;2036;51.578;7.108;2022-07-23T09:21:26;297.67;;;272.20;;
4043;SDS011;2036;51.578;7.108;2022-07-23T09:24:00;365.50;;;335.93;;
4043;SDS011;2036;51.578;7.108;2022-07-23T09:29:17;190.47;;;169.93;;
4043;SDS011;2036;51.578;7.108;2022-07-23T09:31:59;247.70;;;225.07;;
4043;SDS011;2036;51.578;7.108;2022-07-23T09:34:31;306.13;;;280.57;;
4043;SDS011;2036;51.578;7.108;2022-07-23T09:37:10;253.77;;;230.90;;
4043;SDS011;2036;51.578;7.108;2022-07-23T09:39:42;208.10;;;186.63;;
4043;SDS011;2036;51.578;7.108;2022-07-23T09:42:13;406.47;;;374.87;;
4043;SDS011;2036;51.578;7.108;2022-07-23T09:44:46;327.90;;;301.43;;
4043;SDS011;2036;51.578;7.108;2022-07-23T09:47:16;311.17;;;285.93;;
4043;SDS011;2036;51.578;7.108;2022-07-23T09:50:29;257.63;;;234.53;;
4043;SDS011;2036;51.578;7.108;2022-07-23T09:52:47;196.57;;;176.83;;
4043;SDS011;2036;51.578;7.108;2022-07-23T09:55:15;171.00;;;152.33;;
4043;SDS011;2036;51.578;7.108;2022-07-23T09:57:43;197.43;;;177.20;;
4043;SDS011;2036;51.578;7.108;2022-07-23T10:00:11;198.07;;;178.03;;
4043;SDS011;2036;51.578;7.108;2022-07-23T10:02:38;218.40;;;197.87;;
4043;SDS011;2036;51.578;7.108;2022-07-23T10:05:05;187.20;;;167.73;;
4043;SDS011;2036;51.578;7.108;2022-07-23T10:07:33;208.10;;;187.63;;
4043;SDS011;2036;51.578;7.108;2022-07-23T10:10:03;227.27;;;206.27;;
4043;SDS011;2036;51.578;7.108;2022-07-23T10:12:30;231.33;;;210.07;;
4043;SDS011;2036;51.578;7.108;2022-07-23T10:15:28;227.37;;;206.13;;
4043;SDS011;2036;51.578;7.108;2022-07-23T10:17:54;279.03;;;255.07;;
4043;SDS011;2036;51.578;7.108;2022-07-23T10:20:20;196.43;;;176.83;;
4043;SDS011;2036;51.578;7.108;2022-07-23T10:22:58;208.10;;;187.73;;
4043;SDS011;2036;51.578;7.108;2022-07-23T10:32:49;194.43;;;174.87;;
4043;SDS011;2036;51.578;7.108;2022-07-23T10:37:47;225.23;;;204.27;;
4043;SDS011;2036;51.578;7.108;2022-07-23T10:40:19;188.43;;;169.23;;
4043;SDS011;2036;51.578;7.108;2022-07-23T10:42:48;176.97;;;157.90;;
4043;SDS011;2036;51.578;7.108;2022-07-23T10:45:24;178.83;;;159.57;;
4043;SDS011;2036;51.578;7.108;2022-07-23T10:48:15;176.23;;;157.53;;
4043;SDS011;2036;51.578;7.108;2022-07-23T10:53:57;223.50;;;202.20;;
4043;SDS011;2036;51.578;7.108;2022-07-23T10:59:21;187.23;;;167.17;;
4043;SDS011;2036;51.578;7.108;2022-07-23T11:01:47;215.53;;;195.03;;
4043;SDS011;2036;51.578;7.108;2022-07-23T11:04:13;223.97;;;202.83;;
4043;SDS011;2036;51.578;7.108;2022-07-23T11:07:06;241.20;;;219.63;;
4043;SDS011;2036;51.578;7.108;2022-07-23T11:17:33;273.27;;;250.20;;
4043;SDS011;2036;51.578;7.108;2022-07-23T11:20:19;233.13;;;211.97;;
4043;SDS011;2036;51.578;7.108;2022-07-23T11:22:48;283.13;;;259.47;;
4043;SDS011;2036;51.578;7.108;2022-07-23T11:27:53;265.07;;;242.73;;
4043;SDS011;2036;51.578;7.108;2022-07-23T11:32:51;271.63;;;249.07;;
4043;SDS011;2036;51.578;7.108;2022-07-23T11:35:19;248.10;;;226.43;;
4043;SDS011;2036;51.578;7.108;2022-07-23T11:37:45;259.97;;;237.17;;
4043;SDS011;2036;51.578;7.108;2022-07-23T11:40:13;284.10;;;260.93;;
4043;SDS011;2036;51.578;7.108;2022-07-23T11:45:25;295.37;;;271.50;;
4043;SDS011;2036;51.578;7.108;2022-07-23T11:47:57;293.17;;;269.37;;
4043;SDS011;2036;51.578;7.108;2022-07-23T11:50:23;290.37;;;266.53;;
4043;SDS011;2036;51.578;7.108;2022-07-23T11:52:51;279.53;;;256.53;;
4043;SDS011;2036;51.578;7.108;2022-07-23T11:55:17;291.93;;;268.00;;
4043;SDS011;2036;51.578;7.108;2022-07-23T11:57:44;264.03;;;241.57;;
4043;SDS011;2036;51.578;7.108;2022-07-23T12:02:47;261.80;;;239.57;;
4043;SDS011;2036;51.578;7.108;2022-07-23T12:05:21;291.43;;;268.03;;
4043;SDS011;2036;51.578;7.108;2022-07-23T12:07:55;290.43;;;266.63;;
4043;SDS011;2036;51.578;7.108;2022-07-23T12:10:32;302.27;;;278.10;;
4043;SDS011;2036;51.578;7.108;2022-07-23T12:13:02;295.87;;;272.03;;
4043;SDS011;2036;51.578;7.108;2022-07-23T12:18:15;293.80;;;270.00;;
4043;SDS011;2036;51.578;7.108;2022-07-23T12:20:50;254.93;;;233.33;;
4043;SDS011;2036;51.578;7.108;2022-07-23T12:23:21;291.37;;;267.47;;
4043;SDS011;2036;51.578;7.108;2022-07-23T12:25:50;275.60;;;252.70;;
4043;SDS011;2036;51.578;7.108;2022-07-23T12:28:21;259.03;;;237.03;;
4043;SDS011;2036;51.578;7.108;2022-07-23T12:30:54;286.10;;;262.60;;
4043;SDS011;2036;51.578;7.108;2022-07-23T12:33:26;287.10;;;263.60;;
4043;SDS011;2036;51.578;7.108;2022-07-23T12:36:00;247.83;;;225.97;;
4043;SDS011;2036;51.578;7.108;2022-07-23T12:38:36;289.97;;;266.57;;
4043;SDS011;2036;51.578;7.108;2022-07-23T12:41:05;289.10;;;265.73;;
4043;SDS011;2036;51.578;7.108;2022-07-23T12:43:32;199.40;;;180.03;;
4043;SDS011;2036;51.578;7.108;2022-07-23T12:48:36;271.20;;;248.63;;
4043;SDS011;2036;51.578;7.108;2022-07-23T12:53:46;290.83;;;267.23;;
4043;SDS011;2036;51.578;7.108;2022-07-23T12:59:05;312.23;;;287.13;;
4043;SDS011;2036;51.578;7.108;2022-07-23T13:01:37;255.57;;;233.50;;
4043;SDS011;2036;51.578;7.108;2022-07-23T13:04:06;239.87;;;218.73;;
4043;SDS011;2036;51.578;7.108;2022-07-23T13:06:38;245.80;;;223.83;;
4043;SDS011;2036;51.578;7.108;2022-07-23T13:09:19;224.47;;;204.13;;
4043;SDS011;2036;51.578;7.108;2022-07-23T13:11:47;297.07;;;272.70;;
4043;SDS011;2036;51.578;7.108;2022-07-23T13:14:15;284.03;;;260.80;;
4043;SDS011;2036;51.578;7.108;2022-07-23T13:16:43;258.47;;;236.43;;
4043;SDS011;2036;51.578;7.108;2022-07-23T13:19:10;298.13;;;273.87;;
4043;SDS011;2036;51.578;7.108;2022-07-23T13:21:36;282.57;;;259.07;;
4043;SDS011;2036;51.578;7.108;2022-07-23T13:24:03;278.07;;;255.23;;
4043;SDS011;2036;51.578;7.108;2022-07-23T13:26:29;350.47;;;323.57;;
4043;SDS011;2036;51.578;7.108;2022-07-23T13:28:55;306.77;;;282.07;;
4043;SDS011;2036;51.578;7.108;2022-07-23T13:31:21;367.83;;;339.97;;
4043;SDS011;2036;51.578;7.108;2022-07-23T13:33:47;326.90;;;301.50;;
4043;SDS011;2036;51.578;7.108;2022-07-23T13:36:13;361.90;;;334.37;;
4043;SDS011;2036;51.578;7.108;2022-07-23T13:38:39;345.30;;;318.63;;
4043;SDS011;2036;51.578;7.108;2022-07-23T13:41:05;370.57;;;342.90;;
4043;SDS011;2036;51.578;7.108;2022-07-23T13:43:31;350.00;;;323.03;;
4043;SDS011;2036;51.578;7.108;2022-07-23T13:45:58;366.80;;;339.33;;
4043;SDS011;2036;51.578;7.108;2022-07-23T13:48:24;368.57;;;340.67;;
4043;SDS011;2036;51.578;7.108;2022-07-23T13:50:50;345.93;;;318.77;;
4043;SDS011;2036;51.578;7.108;2022-07-23T13:53:18;369.77;;;341.67;;
4043;SDS011;2036;51.578;7.108;2022-07-23T13:55:48;376.17;;;347.60;;
4043;SDS011;2036;51.578;7.108;2022-07-23T13:58:16;385.10;;;355.33;;
4043;SDS011;2036;51.578;7.108;2022-07-23T14:00:48;393.07;;;363.50;;
4043;SDS011;2036;51.578;7.108;2022-07-23T14:03:17;394.20;;;364.60;;
4043;SDS011;2036;51.578;7.108;2022-07-23T14:05:44;401.53;;;371.80;;
4043;SDS011;2036;51.578;7.108;2022-07-23T14:08:10;406.23;;;375.53;;
4043;SDS011;2036;51.578;7.108;2022-07-23T14:10:36;402.63;;;372.67;;
4043;SDS011;2036;51.578;7.108;2022-07-23T14:13:02;396.73;;;366.87;;
4043;SDS011;2036;51.578;7.108;2022-07-23T14:15:29;401.50;;;371.70;;
4043;SDS011;2036;51.578;7.108;2022-07-23T14:17:56;387.07;;;358.07;;
4043;SDS011;2036;51.578;7.108;2022-07-23T14:20:22;397.73;;;367.87;;
4043;SDS011;2036;51.578;7.108;2022-07-23T14:22:49;410.20;;;379.50;;
4043;SDS011;2036;51.578;7.108;2022-07-23T14:25:16;368.63;;;340.53;;
4043;SDS011;2036;51.578;7.108;2022-07-23T14:27:42;403.17;;;373.00;;
4043;SDS011;2036;51.578;7.108;2022-07-23T14:30:10;414.57;;;383.67;;
4043;SDS011;2036;51.578;7.108;2022-07-23T14:32:38;400.33;;;370.00;;
4043;SDS011;2036;51.578;7.108;2022-07-23T14:35:04;358.77;;;330.77;;
4043;SDS011;2036;51.578;7.108;2022-07-23T14:37:31;374.83;;;346.67;;
4043;SDS011;2036;51.578;7.108;2022-07-23T14:39:57;361.93;;;334.23;;
4043;SDS011;2036;51.578;7.108;2022-07-23T14:42:23;369.80;;;341.80;;
4043;SDS011;2036;51.578;7.108;2022-07-23T14:44:49;371.07;;;343.07;;
4043;SDS011;2036;51.578;7.108;2022-07-23T14:47:15;376.03;;;346.90;;
4043;SDS011;2036;51.578;7.108;2022-07-23T14:49:41;364.33;;;336.43;;
4043;SDS011;2036;51.578;7.108;2022-07-23T14:52:06;385.57;;;356.10;;
4043;SDS011;2036;51.578;7.108;2022-07-23T14:54:32;377.97;;;349.40;;
4043;SDS011;2036;51.578;7.108;2022-07-23T14:56:59;412.83;;;381.60;;
4043;SDS011;2036;51.578;7.108;2022-07-23T14:59:27;352.57;;;325.37;;
4043;SDS011;2036;51.578;7.108;2022-07-23T15:01:55;383.87;;;354.77;;
4043;SDS011;2036;51.578;7.108;2022-07-23T15:04:21;385.53;;;356.67;;
4043;SDS011;2036;51.578;7.108;2022-07-23T15:06:48;450.37;;;417.03;;
4043;SDS011;2036;51.578;7.108;2022-07-23T15:09:14;405.17;;;375.57;;
4043;SDS011;2036;51.578;7.108;2022-07-23T15:11:40;396.80;;;366.20;;
4043;SDS011;2036;51.578;7.108;2022-07-23T15:14:06;413.67;;;383.37;;
4043;SDS011;2036;51.578;7.108;2022-07-23T15:16:33;427.20;;;395.90;;